sensor_id;sensor_type;location;lat;lon;timestamp;pressure;altitude;pressure_sealevel;temperature;humidity
51299;BME280;37382;45.192;9.790;2023-04-09T04:04:13;101600.19;;;9.80;100.00
51299;BME280;37382;45.192;9.790;2023-04-09T04:06:47;101599.47;;;10.03;100.00
51299;BME280;37382;45.192;9.790;2023-04-09T04:09:36;101601.72;;;9.83;100.00
51299;BME280;37382;45.192;9.790;2023-04-09T04:12:09;101602.38;;;9.93;100.00
51299;BME280;37382;45.192;9.790;2023-04-09T04:14:50;101608.31;;;9.96;100.00
51299;BME280;37382;45.192;9.790;2023-04-09T04:17:25;101612.91;;;9.96;100.00
51299;BME280;37382;45.192;9.790;2023-04-09T04:19:54;101609.34;;;9.87;100.00
51299;BME280;37382;45.192;9.790;2023-04-09T04:22:23;101609.50;;;9.94;100.00
51299;BME280;37382;45.192;9.790;2023-04-09T04:24:55;101615.28;;;9.91;100.00
51299;BME280;37382;45.192;9.790;2023-04-09T04:27:23;101606.31;;;9.82;100.00
51299;BME280;37382;45.192;9.790;2023-04-09T04:29:50;101618.53;;;9.61;100.00
51299;BME280;37382;45.192;9.790;2023-04-09T04:32:34;101617.53;;;9.46;100.00
51299;BME280;37382;45.192;9.790;2023-04-09T04:35:06;101628.06;;;9.66;100.00
51299;BME280;37382;45.192;9.790;2023-04-09T04:37:34;101618.19;;;9.73;100.00
51299;BME280;37382;45.192;9.790;2023-04-09T04:40:02;101621.91;;;9.80;100.00
51299;BME280;37382;45.192;9.790;2023-04-09T04:42:34;101619.72;;;9.75;100.00
51299;BME280;37382;45.192;9.790;2023-04-09T04:45:08;101618.19;;;9.89;100.00
51299;BME280;37382;45.192;9.790;2023-04-09T04:47:43;101621.56;;;10.00;100.00
51299;BME280;37382;45.192;9.790;2023-04-09T04:50:11;101632.78;;;9.96;100.00
51299;BME280;37382;45.192;9.790;2023-04-09T04:52:51;101626.19;;;9.83;100.00
51299;BME280;37382;45.192;9.790;2023-04-09T04:55:22;101635.34;;;9.65;100.00
51299;BME280;37382;45.192;9.790;2023-04-09T04:57:50;101626.16;;;9.74;100.00
51299;BME280;37382;45.192;9.790;2023-04-09T05:00:22;101632.81;;;9.55;100.00
51299;BME280;37382;45.192;9.790;2023-04-09T05:02:50;101640.25;;;9.37;100.00
51299;BME280;37382;45.192;9.790;2023-04-09T05:05:21;101643.97;;;9.28;100.00
51299;BME280;37382;45.192;9.790;2023-04-09T05:07:53;101646.53;;;9.37;100.00
51299;BME280;37382;45.192;9.790;2023-04-09T05:10:22;101650.63;;;9.41;100.00
51299;BME280;37382;45.192;9.790;2023-04-09T05:12:50;101649.41;;;9.36;100.00
51299;BME280;37382;45.192;9.790;2023-04-09T05:15:26;101654.50;;;9.31;100.00
51299;BME280;37382;45.192;9.790;2023-04-09T05:17:53;101655.84;;;9.18;100.00
51299;BME280;37382;45.192;9.790;2023-04-09T05:20:22;101662.38;;;8.99;100.00
51299;BME280;37382;45.192;9.790;2023-04-09T05:23:02;101658.50;;;9.10;100.00
51299;BME280;37382;45.192;9.790;2023-04-09T05:25:35;101662.44;;;9.16;100.00
51299;BME280;37382;45.192;9.790;2023-04-09T05:28:03;101669.53;;;9.08;100.00
51299;BME280;37382;45.192;9.790;2023-04-09T05:30:32;101668.09;;;9.39;100.00
51299;BME280;37382;45.192;9.790;2023-04-09T05:33:03;101669.16;;;9.63;100.00
51299;BME280;37382;45.192;9.790;2023-04-09T05:35:31;101666.09;;;9.74;100.00
51299;BME280;37382;45.192;9.790;2023-04-09T05:37:59;101671.53;;;9.82;100.00
51299;BME280;37382;45.192;9.790;2023-04-09T05:40:27;101665.56;;;9.95;100.00
51299;BME280;37382;45.192;9.790;2023-04-09T05:42:54;101672.88;;;9.94;100.00
51299;BME280;37382;45.192;9.790;2023-04-09T05:45:32;101660.81;;;10.05;100.00
51299;BME280;37382;45.192;9.790;2023-04-09T05:48:00;101665.56;;;10.03;100.00
51299;BME280;37382;45.192;9.790;2023-04-09T05:50:28;101659.09;;;10.04;100.00
51299;BME280;37382;45.192;9.790;2023-04-09T05:53:00;101658.91;;;10.22;100.00
51299;BME280;37382;45.192;9.790;2023-04-09T05:55:36;101668.97;;;9.89;100.00
51299;BME280;37382;45.192;9.790;2023-04-09T05:58:03;101673.72;;;9.78;100.00
51299;BME280;37382;45.192;9.790;2023-04-09T06:00:31;101677.28;;;9.95;100.00
51299;BME280;37382;45.192;9.790;2023-04-09T06:02:59;101678.16;;;9.96;100.00
51299;BME280;37382;45.192;9.790;2023-04-09T06:05:27;101681.22;;;9.93;100.00
51299;BME280;37382;45.192;9.790;2023-04-09T06:07:55;101681.91;;;9.87;100.00
51299;BME280;37382;45.192;9.790;2023-04-09T06:10:23;101685.28;;;9.64;100.00
51299;BME280;37382;45.192;9.790;2023-04-09T06:12:50;101691.75;;;9.79;100.00
51299;BME280;37382;45.192;9.790;2023-04-09T06:15:19;101692.41;;;9.98;100.00
51299;BME280;37382;45.192;9.790;2023-04-09T06:17:46;101691.72;;;10.12;100.00
51299;BME280;37382;45.192;9.790;2023-04-09T06:20:14;101699.53;;;10.40;100.00
51299;BME280;37382;45.192;9.790;2023-04-09T06:22:42;101702.09;;;10.42;100.00
51299;BME280;37382;45.192;9.790;2023-04-09T06:25:09;101704.97;;;10.40;100.00
51299;BME280;37382;45.192;9.790;2023-04-09T06:27:37;101714.16;;;10.39;100.00
51299;BME280;37382;45.192;9.790;2023-04-09T06:30:05;101718.31;;;10.75;100.00
51299;BME280;37382;45.192;9.790;2023-04-09T06:32:33;101711.94;;;10.99;100.00
51299;BME280;37382;45.192;9.790;2023-04-09T06:35:19;101714.53;;;11.24;100.00
51299;BME280;37382;45.192;9.790;2023-04-09T06:37:47;101719.69;;;11.18;100.00
51299;BME280;37382;45.192;9.790;2023-04-09T06:40:15;101707.59;;;11.21;100.00
51299;BME280;37382;45.192;9.790;2023-04-09T06:42:43;101711.81;;;11.55;100.00
51299;BME280;37382;45.192;9.790;2023-04-09T06:45:19;101714.97;;;11.44;100.00
51299;BME280;37382;45.192;9.790;2023-04-09T06:47:46;101710.69;;;11.72;100.00
51299;BME280;37382;45.192;9.790;2023-04-09T06:50:13;101706.69;;;11.83;100.00
51299;BME280;37382;45.192;9.790;2023-04-09T06:52:41;101705.53;;;12.01;100.00
51299;BME280;37382;45.192;9.790;2023-04-09T06:55:09;101710.19;;;12.30;100.00
51299;BME280;37382;45.192;9.790;2023-04-09T06:57:37;101720.00;;;12.39;100.00
51299;BME280;37382;45.192;9.790;2023-04-09T07:00:05;101725.59;;;12.46;100.00
51299;BME280;37382;45.192;9.790;2023-04-09T07:02:34;101720.72;;;12.56;100.00
51299;BME280;37382;45.192;9.790;2023-04-09T07:05:03;101724.06;;;13.18;100.00
51299;BME280;37382;45.192;9.790;2023-04-09T07:07:30;101733.25;;;13.32;100.00
51299;BME280;37382;45.192;9.790;2023-04-09T07:09:58;101738.00;;;13.38;100.00
51299;BME280;37382;45.192;9.790;2023-04-09T07:12:30;101734.91;;;13.11;100.00
51299;BME280;37382;45.192;9.790;2023-04-09T07:14:58;101745.00;;;12.96;100.00
51299;BME280;37382;45.192;9.790;2023-04-09T07:17:26;101739.34;;;12.97;100.00
51299;BME280;37382;45.192;9.790;2023-04-09T07:19:54;101736.69;;;12.89;100.00
51299;BME280;37382;45.192;9.790;2023-04-09T07:22:22;101737.28;;;12.85;100.00
51299;BME280;37382;45.192;9.790;2023-04-09T07:24:50;101733.97;;;12.89;100.00
51299;BME280;37382;45.192;9.790;2023-04-09T07:27:25;101732.94;;;13.05;100.00
51299;BME280;37382;45.192;9.790;2023-04-09T07:29:55;101729.69;;;13.46;100.00
51299;BME280;37382;45.192;9.790;2023-04-09T07:32:24;101735.25;;;13.38;100.00
51299;BME280;37382;45.192;9.790;2023-04-09T07:34:53;101736.00;;;13.32;100.00
51299;BME280;37382;45.192;9.790;2023-04-09T07:37:20;101743.34;;;13.61;100.00
51299;BME280;37382;45.192;9.790;2023-04-09T07:39:48;101742.09;;;13.85;100.00
51299;BME280;37382;45.192;9.790;2023-04-09T07:42:17;101738.00;;;13.96;100.00
51299;BME280;37382;45.192;9.790;2023-04-09T07:44:45;101729.31;;;13.93;100.00
51299;BME280;37382;45.192;9.790;2023-04-09T07:47:13;101738.06;;;13.81;100.00
51299;BME280;37382;45.192;9.790;2023-04-09T07:49:41;101735.44;;;13.73;100.00
51299;BME280;37382;45.192;9.790;2023-04-09T07:52:09;101744.97;;;13.77;100.00
51299;BME280;37382;45.192;9.790;2023-04-09T07:54:37;101745.16;;;13.76;100.00
51299;BME280;37382;45.192;9.790;2023-04-09T07:57:05;101749.44;;;13.85;100.00
51299;BME280;37382;45.192;9.790;2023-04-09T07:59:33;101753.03;;;13.85;100.00
51299;BME280;37382;45.192;9.790;2023-04-09T08:02:01;101753.13;;;13.92;100.00
51299;BME280;37382;45.192;9.790;2023-04-09T08:04:30;101755.50;;;14.02;100.00
51299;BME280;37382;45.192;9.790;2023-04-09T08:06:58;101750.22;;;14.00;100.00
51299;BME280;37382;45.192;9.790;2023-04-09T08:09:25;101759.09;;;14.02;100.00
51299;BME280;37382;45.192;9.790;2023-04-09T08:11:53;101747.06;;;13.97;100.00
51299;BME280;37382;45.192;9.790;2023-04-09T08:14:20;101748.06;;;14.17;100.00
51299;BME280;37382;45.192;9.790;2023-04-09T08:16:48;101747.75;;;14.27;100.00
51299;BME280;37382;45.192;9.790;2023-04-09T08:19:17;101745.72;;;14.36;100.00
51299;BME280;37382;45.192;9.790;2023-04-09T08:21:46;101743.75;;;14.58;100.00
51299;BME280;37382;45.192;9.790;2023-04-09T08:24:16;101737.94;;;14.39;100.00
51299;BME280;37382;45.192;9.790;2023-04-09T08:26:43;101742.59;;;14.67;100.00
51299;BME280;37382;45.192;9.790;2023-04-09T08:29:11;101732.97;;;14.78;100.00
51299;BME280;37382;45.192;9.790;2023-04-09T08:31:40;101735.06;;;14.76;100.00
51299;BME280;37382;45.192;9.790;2023-04-09T08:34:08;101740.88;;;15.01;100.00
51299;BME280;37382;45.192;9.790;2023-04-09T08:36:35;101746.84;;;15.05;100.00
51299;BME280;37382;45.192;9.790;2023-04-09T08:39:04;101743.19;;;14.98;100.00
51299;BME280;37382;45.192;9.790;2023-04-09T08:41:31;101750.72;;;14.89;100.00
51299;BME280;37382;45.192;9.790;2023-04-09T08:43:58;101751.28;;;15.06;100.00
51299;BME280;37382;45.192;9.790;2023-04-09T08:46:27;101745.50;;;15.42;100.00
51299;BME280;37382;45.192;9.790;2023-04-09T08:48:55;101742.06;;;15.27;100.00
51299;BME280;37382;45.192;9.790;2023-04-09T08:51:23;101742.22;;;15.67;100.00
51299;BME280;37382;45.192;9.790;2023-04-09T08:53:58;101750.19;;;15.48;100.00
51299;BME280;37382;45.192;9.790;2023-04-09T08:56:31;101749.09;;;15.01;100.00
51299;BME280;37382;45.192;9.790;2023-04-09T08:58:58;101748.31;;;15.07;100.00
51299;BME280;37382;45.192;9.790;2023-04-09T09:01:30;101761.16;;;15.07;100.00
51299;BME280;37382;45.192;9.790;2023-04-09T09:04:01;101764.47;;;14.96;100.00
51299;BME280;37382;45.192;9.790;2023-04-09T09:06:33;101753.03;;;15.27;100.00
51299;BME280;37382;45.192;9.790;2023-04-09T09:09:07;101761.63;;;15.65;100.00
51299;BME280;37382;45.192;9.790;2023-04-09T09:14:08;101757.59;;;15.55;100.00
51299;BME280;37382;45.192;9.790;2023-04-09T09:16:38;101751.94;;;15.76;100.00
51299;BME280;37382;45.192;9.790;2023-04-09T09:19:29;101761.06;;;15.83;100.00
51299;BME280;37382;45.192;9.790;2023-04-09T09:22:07;101763.19;;;15.95;100.00
51299;BME280;37382;45.192;9.790;2023-04-09T09:24:44;101760.88;;;15.92;100.00
51299;BME280;37382;45.192;9.790;2023-04-09T09:27:33;101761.63;;;15.65;100.00
51299;BME280;37382;45.192;9.790;2023-04-09T09:30:03;101766.34;;;15.85;100.00
51299;BME280;37382;45.192;9.790;2023-04-09T09:32:32;101763.84;;;16.10;100.00
51299;BME280;37382;45.192;9.790;2023-04-09T09:35:02;101760.47;;;16.15;100.00
51299;BME280;37382;45.192;9.790;2023-04-09T09:37:30;101760.91;;;16.05;100.00
51299;BME280;37382;45.192;9.790;2023-04-09T09:39:59;101752.66;;;16.45;100.00
51299;BME280;37382;45.192;9.790;2023-04-09T09:42:26;101752.03;;;16.30;100.00
51299;BME280;37382;45.192;9.790;2023-04-09T09:44:54;101758.78;;;16.21;100.00
51299;BME280;37382;45.192;9.790;2023-04-09T09:47:22;101755.63;;;16.24;100.00
51299;BME280;37382;45.192;9.790;2023-04-09T09:49:52;101750.78;;;16.32;100.00
51299;BME280;37382;45.192;9.790;2023-04-09T09:52:24;101746.53;;;16.43;100.00
51299;BME280;37382;45.192;9.790;2023-04-09T09:54:54;101743.34;;;16.53;100.00
51299;BME280;37382;45.192;9.790;2023-04-09T09:57:24;101742.31;;;16.54;100.00
51299;BME280;37382;45.192;9.790;2023-04-09T10:00:03;101736.75;;;16.81;100.00
51299;BME280;37382;45.192;9.790;2023-04-09T10:02:43;101731.63;;;17.18;100.00
51299;BME280;37382;45.192;9.790;2023-04-09T10:05:14;101736.84;;;17.26;100.00
51299;BME280;37382;45.192;9.790;2023-04-09T10:07:43;101724.59;;;17.22;100.00
51299;BME280;37382;45.192;9.790;2023-04-09T10:10:11;101725.53;;;17.02;100.00
51299;BME280;37382;45.192;9.790;2023-04-09T10:12:39;101726.34;;;17.10;96.92
51299;BME280;37382;45.192;9.790;2023-04-09T10:15:08;101723.63;;;17.03;92.34
51299;BME280;37382;45.192;9.790;2023-04-09T10:17:36;101720.25;;;17.01;90.20
51299;BME280;37382;45.192;9.790;2023-04-09T10:20:15;101721.91;;;17.09;86.72
51299;BME280;37382;45.192;9.790;2023-04-09T10:22:47;101716.78;;;17.64;88.71
51299;BME280;37382;45.192;9.790;2023-04-09T10:25:16;101716.06;;;17.75;89.64
51299;BME280;37382;45.192;9.790;2023-04-09T10:27:44;101717.13;;;17.74;90.53
51299;BME280;37382;45.192;9.790;2023-04-09T10:30:34;101712.44;;;16.84;87.38
51299;BME280;37382;45.192;9.790;2023-04-09T10:33:16;101719.81;;;17.04;88.35
51299;BME280;37382;45.192;9.790;2023-04-09T10:35:48;101716.66;;;17.00;91.84
51299;BME280;37382;45.192;9.790;2023-04-09T10:38:16;101708.91;;;16.57;89.77
51299;BME280;37382;45.192;9.790;2023-04-09T10:40:47;101705.72;;;16.67;91.89
51299;BME280;37382;45.192;9.790;2023-04-09T10:43:18;101711.59;;;17.42;86.20
51299;BME280;37382;45.192;9.790;2023-04-09T10:45:50;101701.69;;;17.73;84.34
51299;BME280;37382;45.192;9.790;2023-04-09T10:48:22;101688.97;;;18.04;83.25
51299;BME280;37382;45.192;9.790;2023-04-09T10:50:52;101694.25;;;18.31;81.86
51299;BME280;37382;45.192;9.790;2023-04-09T10:53:23;101689.88;;;18.23;79.59
51299;BME280;37382;45.192;9.790;2023-04-09T10:55:52;101682.22;;;18.69;78.80
51299;BME280;37382;45.192;9.790;2023-04-09T10:58:20;101687.81;;;18.81;79.52
51299;BME280;37382;45.192;9.790;2023-04-09T11:00:48;101690.16;;;19.33;76.38
51299;BME280;37382;45.192;9.790;2023-04-09T11:03:26;101679.41;;;19.43;75.37
51299;BME280;37382;45.192;9.790;2023-04-09T11:06:04;101685.00;;;19.25;75.79
51299;BME280;37382;45.192;9.790;2023-04-09T11:08:36;101682.34;;;19.90;74.29
51299;BME280;37382;45.192;9.790;2023-04-09T11:11:05;101673.00;;;20.15;73.76
51299;BME280;37382;45.192;9.790;2023-04-09T11:13:32;101663.75;;;19.25;71.46
51299;BME280;37382;45.192;9.790;2023-04-09T11:16:00;101678.06;;;19.15;72.05
51299;BME280;37382;45.192;9.790;2023-04-09T11:18:33;101676.56;;;19.01;72.57
51299;BME280;37382;45.192;9.790;2023-04-09T11:21:02;101675.47;;;19.20;71.51
51299;BME280;37382;45.192;9.790;2023-04-09T11:23:31;101674.06;;;18.99;71.58
51299;BME280;37382;45.192;9.790;2023-04-09T11:25:59;101667.47;;;19.00;69.60
51299;BME280;37382;45.192;9.790;2023-04-09T11:28:28;101668.91;;;18.84;70.57
51299;BME280;37382;45.192;9.790;2023-04-09T11:30:55;101667.63;;;18.87;70.34
51299;BME280;37382;45.192;9.790;2023-04-09T11:33:30;101665.69;;;18.69;70.64
51299;BME280;37382;45.192;9.790;2023-04-09T11:35:57;101663.53;;;18.71;69.99
51299;BME280;37382;45.192;9.790;2023-04-09T11:38:25;101666.28;;;18.71;71.44
51299;BME280;37382;45.192;9.790;2023-04-09T11:40:56;101659.47;;;18.55;72.89
51299;BME280;37382;45.192;9.790;2023-04-09T11:43:23;101658.00;;;18.71;71.38
51299;BME280;37382;45.192;9.790;2023-04-09T11:45:51;101658.66;;;18.55;70.96
51299;BME280;37382;45.192;9.790;2023-04-09T11:48:19;101659.72;;;18.72;71.69
51299;BME280;37382;45.192;9.790;2023-04-09T11:50:49;101663.97;;;18.31;70.24
51299;BME280;37382;45.192;9.790;2023-04-09T11:53:21;101648.59;;;18.42;70.43
51299;BME280;37382;45.192;9.790;2023-04-09T11:55:49;101650.50;;;18.23;70.77
51299;BME280;37382;45.192;9.790;2023-04-09T11:58:21;101650.41;;;18.29;72.89
51299;BME280;37382;45.192;9.790;2023-04-09T12:00:52;101650.06;;;18.63;72.66
51299;BME280;37382;45.192;9.790;2023-04-09T12:03:26;101646.38;;;18.32;71.59
51299;BME280;37382;45.192;9.790;2023-04-09T12:05:59;101641.94;;;18.49;71.09
51299;BME280;37382;45.192;9.790;2023-04-09T12:08:27;101641.38;;;18.41;71.72
51299;BME280;37382;45.192;9.790;2023-04-09T12:10:55;101639.72;;;18.40;70.13
51299;BME280;37382;45.192;9.790;2023-04-09T12:13:31;101645.19;;;18.83;70.65
51299;BME280;37382;45.192;9.790;2023-04-09T12:16:00;101635.31;;;18.94;67.80
51299;BME280;37382;45.192;9.790;2023-04-09T12:18:28;101641.09;;;19.05;68.60
51299;BME280;37382;45.192;9.790;2023-04-09T12:20:55;101640.84;;;18.94;65.89
51299;BME280;37382;45.192;9.790;2023-04-09T12:23:23;101634.09;;;19.20;64.44
51299;BME280;37382;45.192;9.790;2023-04-09T12:25:51;101631.41;;;19.02;66.81
51299;BME280;37382;45.192;9.790;2023-04-09T12:28:19;101628.81;;;18.52;65.13
51299;BME280;37382;45.192;9.790;2023-04-09T12:30:46;101626.28;;;18.50;65.84
51299;BME280;37382;45.192;9.790;2023-04-09T12:33:15;101626.66;;;18.91;67.20
51299;BME280;37382;45.192;9.790;2023-04-09T12:35:42;101620.13;;;19.04;66.44
51299;BME280;37382;45.192;9.790;2023-04-09T12:38:10;101627.66;;;18.96;66.61
51299;BME280;37382;45.192;9.790;2023-04-09T12:40:37;101627.19;;;18.99;64.95
51299;BME280;37382;45.192;9.790;2023-04-09T12:43:05;101624.31;;;19.06;65.92
51299;BME280;37382;45.192;9.790;2023-04-09T12:45:33;101616.75;;;18.83;64.15
51299;BME280;37382;45.192;9.790;2023-04-09T12:48:00;101619.28;;;18.84;65.31
51299;BME280;37382;45.192;9.790;2023-04-09T12:50:28;101620.31;;;18.90;67.04
51299;BME280;37382;45.192;9.790;2023-04-09T12:52:55;101618.75;;;18.39;68.33
51299;BME280;37382;45.192;9.790;2023-04-09T12:55:23;101618.69;;;18.45;66.53
51299;BME280;37382;45.192;9.790;2023-04-09T12:57:51;101619.63;;;18.58;66.19
51299;BME280;37382;45.192;9.790;2023-04-09T13:00:19;101614.56;;;18.55;65.42
51299;BME280;37382;45.192;9.790;2023-04-09T13:02:48;101603.81;;;18.46;65.90
51299;BME280;37382;45.192;9.790;2023-04-09T13:05:16;101604.19;;;18.31;65.72
51299;BME280;37382;45.192;9.790;2023-04-09T13:07:44;101602.44;;;18.74;66.78
51299;BME280;37382;45.192;9.790;2023-04-09T13:10:11;101602.59;;;18.79;65.73
51299;BME280;37382;45.192;9.790;2023-04-09T13:12:39;101596.28;;;19.51;64.96
51299;BME280;37382;45.192;9.790;2023-04-09T13:15:06;101587.97;;;19.82;64.54
51299;BME280;37382;45.192;9.790;2023-04-09T13:17:34;101585.75;;;20.67;61.58
51299;BME280;37382;45.192;9.790;2023-04-09T13:20:02;101583.50;;;20.92;61.44
51299;BME280;37382;45.192;9.790;2023-04-09T13:22:30;101580.09;;;19.67;59.76
51299;BME280;37382;45.192;9.790;2023-04-09T13:24:57;101568.34;;;20.31;58.53
51299;BME280;37382;45.192;9.790;2023-04-09T13:27:25;101571.44;;;20.58;60.50
51299;BME280;37382;45.192;9.790;2023-04-09T13:29:53;101565.97;;;20.87;58.32
51299;BME280;37382;45.192;9.790;2023-04-09T13:32:20;101569.19;;;20.31;61.16
51299;BME280;37382;45.192;9.790;2023-04-09T13:34:49;101563.28;;;19.56;62.13
51299;BME280;37382;45.192;9.790;2023-04-09T13:37:17;101559.81;;;19.49;60.71
51299;BME280;37382;45.192;9.790;2023-04-09T13:39:44;101550.69;;;19.37;61.77
51299;BME280;37382;45.192;9.790;2023-04-09T13:42:12;101547.19;;;20.48;60.48
51299;BME280;37382;45.192;9.790;2023-04-09T13:44:41;101545.88;;;21.08;58.75
51299;BME280;37382;45.192;9.790;2023-04-09T13:47:12;101544.78;;;20.92;57.36
51299;BME280;37382;45.192;9.790;2023-04-09T13:49:40;101542.75;;;20.88;57.67
51299;BME280;37382;45.192;9.790;2023-04-09T13:52:08;101530.47;;;20.43;58.12
51299;BME280;37382;45.192;9.790;2023-04-09T13:54:36;101540.38;;;20.39;57.33
51299;BME280;37382;45.192;9.790;2023-04-09T13:57:04;101531.38;;;20.32;57.74
51299;BME280;37382;45.192;9.790;2023-04-09T13:59:32;101528.22;;;20.40;58.41
51299;BME280;37382;45.192;9.790;2023-04-09T14:02:00;101511.69;;;21.31;55.56
51299;BME280;37382;45.192;9.790;2023-04-09T14:04:28;101513.31;;;21.61;54.78
51299;BME280;37382;45.192;9.790;2023-04-09T14:06:55;101508.19;;;22.09;55.01
51299;BME280;37382;45.192;9.790;2023-04-09T14:09:23;101505.56;;;22.19;54.38
51299;BME280;37382;45.192;9.790;2023-04-09T14:11:51;101506.25;;;21.71;54.58
51299;BME280;37382;45.192;9.790;2023-04-09T14:14:20;101501.59;;;22.32;55.44
51299;BME280;37382;45.192;9.790;2023-04-09T14:16:48;101500.38;;;22.06;53.98
51299;BME280;37382;45.192;9.790;2023-04-09T14:19:16;101497.41;;;21.91;53.43
51299;BME280;37382;45.192;9.790;2023-04-09T14:21:43;101496.63;;;22.84;50.41
51299;BME280;37382;45.192;9.790;2023-04-09T14:24:11;101464.38;;;28.58;41.97
51299;BME280;37382;45.192;9.790;2023-04-09T14:26:39;101463.75;;;31.84;35.45
51299;BME280;37382;45.192;9.790;2023-04-09T14:29:06;101456.44;;;34.65;30.67
51299;BME280;37382;45.192;9.790;2023-04-09T14:31:34;101470.09;;;35.39;27.70
51299;BME280;37382;45.192;9.790;2023-04-09T14:34:02;101483.06;;;32.17;28.65
51299;BME280;37382;45.192;9.790;2023-04-09T14:36:29;101472.75;;;37.12;24.99
51299;BME280;37382;45.192;9.790;2023-04-09T14:38:57;101480.03;;;35.57;24.85
51299;BME280;37382;45.192;9.790;2023-04-09T14:41:25;101488.16;;;35.59;25.37
51299;BME280;37382;45.192;9.790;2023-04-09T14:43:53;101491.72;;;35.68;24.82
51299;BME280;37382;45.192;9.790;2023-04-09T14:46:21;101484.28;;;35.63;23.73
51299;BME280;37382;45.192;9.790;2023-04-09T14:48:48;101483.84;;;36.89;22.72
51299;BME280;37382;45.192;9.790;2023-04-09T14:51:17;101489.69;;;38.16;22.28
51299;BME280;37382;45.192;9.790;2023-04-09T14:53:44;101479.22;;;37.56;21.87
51299;BME280;37382;45.192;9.790;2023-04-09T14:56:11;101478.50;;;37.44;22.43
51299;BME280;37382;45.192;9.790;2023-04-09T14:58:39;101476.69;;;40.25;20.25
51299;BME280;37382;45.192;9.790;2023-04-09T15:01:06;101486.41;;;37.98;21.45
51299;BME280;37382;45.192;9.790;2023-04-09T15:03:34;101473.09;;;32.77;25.06
51299;BME280;37382;45.192;9.790;2023-04-09T15:06:02;101483.78;;;31.29;26.68
51299;BME280;37382;45.192;9.790;2023-04-09T15:08:29;101476.34;;;32.44;24.83
51299;BME280;37382;45.192;9.790;2023-04-09T15:10:57;101474.38;;;33.24;25.42
51299;BME280;37382;45.192;9.790;2023-04-09T15:13:24;101462.47;;;36.01;23.11
51299;BME280;37382;45.192;9.790;2023-04-09T15:15:52;101458.56;;;37.40;20.91
51299;BME280;37382;45.192;9.790;2023-04-09T15:18:20;101451.53;;;34.96;22.58
51299;BME280;37382;45.192;9.790;2023-04-09T15:20:49;101456.34;;;37.97;20.41
51299;BME280;37382;45.192;9.790;2023-04-09T15:23:16;101463.41;;;36.83;21.00
51299;BME280;37382;45.192;9.790;2023-04-09T15:25:44;101463.78;;;36.16;21.86
51299;BME280;37382;45.192;9.790;2023-04-09T15:28:12;101454.13;;;37.27;21.10
51299;BME280;37382;45.192;9.790;2023-04-09T15:30:40;101464.50;;;37.67;20.96
51299;BME280;37382;45.192;9.790;2023-04-09T15:33:08;101455.19;;;36.78;21.32
51299;BME280;37382;45.192;9.790;2023-04-09T15:35:35;101450.78;;;37.09;21.68
51299;BME280;37382;45.192;9.790;2023-04-09T15:38:03;101457.00;;;32.78;23.65
51299;BME280;37382;45.192;9.790;2023-04-09T15:40:31;101467.56;;;33.90;24.10
51299;BME280;37382;45.192;9.790;2023-04-09T15:42:59;101466.47;;;32.07;24.83
51299;BME280;37382;45.192;9.790;2023-04-09T15:45:26;101452.56;;;35.24;22.72
51299;BME280;37382;45.192;9.790;2023-04-09T15:47:55;101455.91;;;35.97;21.76
51299;BME280;37382;45.192;9.790;2023-04-09T15:50:22;101459.47;;;29.07;26.79
51299;BME280;37382;45.192;9.790;2023-04-09T15:52:50;101479.88;;;27.24;29.34
51299;BME280;37382;45.192;9.790;2023-04-09T15:55:17;101469.78;;;29.58;27.30
51299;BME280;37382;45.192;9.790;2023-04-09T15:57:45;101459.91;;;32.20;25.20
51299;BME280;37382;45.192;9.790;2023-04-09T16:00:13;101453.13;;;34.12;23.61
51299;BME280;37382;45.192;9.790;2023-04-09T16:02:41;101453.44;;;33.42;24.22
51299;BME280;37382;45.192;9.790;2023-04-09T16:05:09;101464.47;;;26.53;30.64
51299;BME280;37382;45.192;9.790;2023-04-09T16:07:37;101474.97;;;24.41;34.26
51299;BME280;37382;45.192;9.790;2023-04-09T16:10:06;101478.91;;;22.90;36.40
51299;BME280;37382;45.192;9.790;2023-04-09T16:12:34;101485.09;;;22.70;37.69
51299;BME280;37382;45.192;9.790;2023-04-09T16:15:02;101483.16;;;26.52;33.03
51299;BME280;37382;45.192;9.790;2023-04-09T16:17:29;101465.47;;;30.22;28.28
51299;BME280;37382;45.192;9.790;2023-04-09T16:20:07;101468.69;;;30.79;27.21
51299;BME280;37382;45.192;9.790;2023-04-09T16:22:34;101472.53;;;31.06;26.68
51299;BME280;37382;45.192;9.790;2023-04-09T16:25:02;101469.66;;;31.74;25.98
51299;BME280;37382;45.192;9.790;2023-04-09T16:27:30;101473.81;;;31.77;25.66
51299;BME280;37382;45.192;9.790;2023-04-09T16:29:58;101473.38;;;32.50;25.37
51299;BME280;37382;45.192;9.790;2023-04-09T16:32:26;101473.06;;;31.93;25.14
51299;BME280;37382;45.192;9.790;2023-04-09T16:34:54;101468.03;;;32.13;25.42
51299;BME280;37382;45.192;9.790;2023-04-09T16:37:26;101472.56;;;29.91;27.36
51299;BME280;37382;45.192;9.790;2023-04-09T16:39:54;101466.78;;;30.89;26.50
51299;BME280;37382;45.192;9.790;2023-04-09T16:42:23;101461.78;;;30.63;27.00
51299;BME280;37382;45.192;9.790;2023-04-09T16:44:52;101473.47;;;29.73;28.11
51299;BME280;37382;45.192;9.790;2023-04-09T16:47:20;101477.19;;;26.19;31.31
51299;BME280;37382;45.192;9.790;2023-04-09T16:49:48;101474.78;;;27.31;30.56
51299;BME280;37382;45.192;9.790;2023-04-09T16:52:15;101480.59;;;23.93;34.46
51299;BME280;37382;45.192;9.790;2023-04-09T16:54:43;101487.75;;;22.15;36.67
51299;BME280;37382;45.192;9.790;2023-04-09T16:57:10;101486.94;;;21.76;36.96
51299;BME280;37382;45.192;9.790;2023-04-09T16:59:38;101490.06;;;21.11;38.34
51299;BME280;37382;45.192;9.790;2023-04-09T17:02:08;101489.34;;;20.87;40.39
51299;BME280;37382;45.192;9.790;2023-04-09T17:04:36;101500.88;;;20.55;42.19